createdAt,value
2022-10-08T00:01:23.833Z,9.03
2022-10-08T00:03:55.161Z,7.37
2022-10-08T00:06:27.418Z,9.10
2022-10-08T00:08:57.058Z,6.73
2022-10-08T00:11:29.584Z,8.10
2022-10-08T00:13:57.270Z,2.70
2022-10-08T00:16:28.487Z,7.23
2022-10-08T00:19:01.398Z,5.60
2022-10-08T00:21:34.601Z,1.10
2022-10-08T00:24:02.504Z,1.47
2022-10-08T00:26:31.760Z,1.40
2022-10-08T00:29:01.967Z,1.53
2022-10-08T00:31:35.118Z,0.90
2022-10-08T00:34:06.075Z,1.47
2022-10-08T00:36:34.914Z,1.00
2022-10-08T00:39:14.070Z,1.50
2022-10-08T00:41:41.827Z,3.87
2022-10-08T00:44:46.563Z,7.73
2022-10-08T00:47:19.646Z,3.70
2022-10-08T00:49:51.476Z,12.40
2022-10-08T00:52:19.609Z,10.23
2022-10-08T00:54:50.320Z,11.63
2022-10-08T00:57:18.602Z,9.03
2022-10-08T00:59:46.151Z,10.47
2022-10-08T01:02:13.850Z,4.20
2022-10-08T01:04:43.706Z,3.37
2022-10-08T01:07:28.620Z,2.30
2022-10-08T01:09:59.486Z,5.27
2022-10-08T01:12:48.223Z,3.13
2022-10-08T01:15:45.119Z,9.13
2022-10-08T01:19:10.820Z,7.30
2022-10-08T01:22:01.069Z,1.10
2022-10-08T01:24:54.721Z,1.43
2022-10-08T01:27:42.603Z,8.43
2022-10-08T01:30:15.674Z,2.80
2022-10-08T01:32:56.456Z,8.90
2022-10-08T01:35:34.415Z,6.13
2022-10-08T01:38:07.368Z,1.30
2022-10-08T01:40:39.029Z,0.93
2022-10-08T01:43:07.897Z,0.90
2022-10-08T01:45:39.282Z,1.13
2022-10-08T01:48:10.564Z,1.00
2022-10-08T01:50:48.135Z,0.90
2022-10-08T01:53:17.573Z,5.60
2022-10-08T01:55:52.185Z,8.63
2022-10-08T01:58:51.346Z,6.03
2022-10-08T02:01:24.231Z,7.50
2022-10-08T02:04:10.836Z,6.63
2022-10-08T02:06:41.505Z,0.77
2022-10-08T02:09:10.742Z,1.93
2022-10-08T02:11:40.296Z,0.90
2022-10-08T02:14:08.242Z,1.00
2022-10-08T02:16:38.877Z,1.10
2022-10-08T02:19:50.651Z,0.97
2022-10-08T02:22:22.287Z,6.90
2022-10-08T02:25:23.081Z,6.50
2022-10-08T02:28:28.489Z,6.00
2022-10-08T02:31:17.874Z,5.33
2022-10-08T02:33:48.661Z,5.67
2022-10-08T02:36:19.861Z,8.13
2022-10-08T02:38:54.363Z,6.63
2022-10-08T02:41:29.983Z,6.20
2022-10-08T02:43:59.927Z,2.40
2022-10-08T02:46:28.703Z,1.90
2022-10-08T02:49:00.461Z,5.33
2022-10-08T02:51:28.486Z,4.53
2022-10-08T02:53:55.854Z,6.40
2022-10-08T02:56:39.052Z,6.53
2022-10-08T02:59:06.902Z,0.93
2022-10-08T03:01:49.532Z,1.00
2022-10-08T03:04:37.390Z,6.80
2022-10-08T03:07:04.962Z,1.20
2022-10-08T03:09:38.539Z,0.80
2022-10-08T03:12:07.107Z,0.90
2022-10-08T03:14:40.310Z,1.13
2022-10-08T03:17:08.402Z,0.93
2022-10-08T03:19:36.303Z,0.90
2022-10-08T03:22:04.288Z,1.17
2022-10-08T03:24:31.640Z,0.80
2022-10-08T03:26:58.928Z,1.37
2022-10-08T03:29:26.269Z,3.63
2022-10-08T03:31:56.614Z,6.10
2022-10-08T03:34:25.646Z,6.53
2022-10-08T03:36:55.763Z,7.47
2022-10-08T03:39:22.917Z,6.23
2022-10-08T03:41:50.476Z,6.07
2022-10-08T03:44:17.943Z,6.20
2022-10-08T03:46:47.122Z,6.83
2022-10-08T03:49:16.722Z,3.83
2022-10-08T03:51:43.809Z,2.60
2022-10-08T03:54:10.948Z,1.93
2022-10-08T03:56:38.198Z,0.80
2022-10-08T03:59:05.575Z,2.50
2022-10-08T04:01:33.304Z,0.93
2022-10-08T04:04:00.381Z,1.33
2022-10-08T04:06:27.551Z,2.13
2022-10-08T04:09:00.943Z,5.73
2022-10-08T04:11:29.666Z,1.90
2022-10-08T04:13:56.742Z,3.43
2022-10-08T04:16:23.974Z,6.10
2022-10-08T04:18:51.057Z,6.47
2022-10-08T04:21:20.116Z,9.43
2022-10-08T04:23:50.416Z,8.37
2022-10-08T04:26:18.605Z,6.90
2022-10-08T04:28:46.079Z,7.93
2022-10-08T04:31:18.280Z,4.03
2022-10-08T04:33:46.986Z,6.97
2022-10-08T04:36:16.571Z,2.87
2022-10-08T04:38:44.581Z,2.30
2022-10-08T04:41:13.656Z,3.90
2022-10-08T04:43:42.157Z,1.60
2022-10-08T04:46:11.362Z,2.53
2022-10-08T04:48:39.433Z,1.30
2022-10-08T04:51:10.545Z,1.10
2022-10-08T04:53:38.192Z,1.20
2022-10-08T04:56:17.330Z,1.77
2022-10-08T04:58:44.865Z,4.27
2022-10-08T05:01:14.670Z,5.83
2022-10-08T05:03:44.320Z,3.57
2022-10-08T05:06:12.032Z,2.40
2022-10-08T05:08:39.558Z,2.17
2022-10-08T05:11:07.469Z,1.60
2022-10-08T05:13:35.495Z,0.90
2022-10-08T05:16:05.247Z,1.43
2022-10-08T05:18:33.986Z,1.00
2022-10-08T05:21:09.842Z,1.37
2022-10-08T05:23:40.739Z,1.10
2022-10-08T05:26:13.754Z,0.80
2022-10-08T05:28:40.845Z,3.47
2022-10-08T05:31:08.311Z,1.07
2022-10-08T05:33:39.207Z,1.00
2022-10-08T05:36:08.824Z,1.87
2022-10-08T05:38:36.402Z,1.10
2022-10-08T05:41:24.098Z,1.37
2022-10-08T05:43:51.922Z,7.50
2022-10-08T05:46:19.284Z,6.93
2022-10-08T05:48:46.466Z,7.60
2022-10-08T05:51:15.947Z,4.20
2022-10-08T05:53:48.195Z,4.87
2022-10-08T05:56:17.402Z,7.40
2022-10-08T05:58:45.783Z,4.53
2022-10-08T06:01:28.312Z,5.03
2022-10-08T06:04:08.417Z,6.40
2022-10-08T06:06:37.607Z,0.97
2022-10-08T06:09:05.757Z,1.83
2022-10-08T06:11:35.953Z,0.83
2022-10-08T06:14:03.753Z,1.30
2022-10-08T06:16:31.327Z,0.90
2022-10-08T06:18:58.564Z,2.10
2022-10-08T06:21:26.744Z,4.63
2022-10-08T06:24:03.225Z,6.60
2022-10-08T06:26:35.612Z,0.90
2022-10-08T06:29:12.836Z,1.53
2022-10-08T06:31:39.984Z,2.63
2022-10-08T06:34:07.316Z,3.70
2022-10-08T06:36:35.426Z,1.00
2022-10-08T06:39:06.260Z,1.77
2022-10-08T06:41:36.064Z,0.97
2022-10-08T06:44:05.863Z,2.33
2022-10-08T06:46:33.655Z,1.33
2022-10-08T06:49:01.943Z,1.27
2022-10-08T06:51:29.763Z,1.30
2022-10-08T06:54:02.866Z,3.70
2022-10-08T06:56:35.874Z,1.20
2022-10-08T06:59:06.264Z,1.33
2022-10-08T07:01:36.341Z,1.00
2022-10-08T07:04:05.433Z,1.27
2022-10-08T07:06:32.768Z,1.13
2022-10-08T07:09:00.965Z,1.37
2022-10-08T07:11:28.588Z,1.93
2022-10-08T07:13:56.218Z,5.63
2022-10-08T07:16:25.917Z,6.63
2022-10-08T07:18:54.509Z,6.20
2022-10-08T07:21:22.965Z,9.23
2022-10-08T07:23:50.434Z,6.83
2022-10-08T07:26:24.719Z,6.77
2022-10-08T07:28:57.526Z,6.53
2022-10-08T07:31:30.180Z,6.43
2022-10-08T07:33:58.422Z,2.67
2022-10-08T07:36:28.098Z,5.43
2022-10-08T07:38:59.847Z,6.33
2022-10-08T07:41:29.094Z,2.50
2022-10-08T07:44:00.719Z,4.60
2022-10-08T07:46:29.116Z,2.93
2022-10-08T07:48:59.544Z,3.83
2022-10-08T07:51:28.467Z,3.37
2022-10-08T07:54:00.271Z,7.07
2022-10-08T07:56:29.500Z,1.10
2022-10-08T07:58:56.588Z,4.13
2022-10-08T08:01:29.848Z,6.33
2022-10-08T08:04:06.797Z,2.80
2022-10-08T08:06:38.806Z,0.80
2022-10-08T08:09:06.400Z,0.90
2022-10-08T08:11:33.563Z,0.80
2022-10-08T08:14:00.739Z,1.13
2022-10-08T08:16:29.701Z,2.23
2022-10-08T08:19:01.611Z,4.10
2022-10-08T08:21:31.187Z,1.47
2022-10-08T08:24:07.348Z,2.50
2022-10-08T08:26:37.166Z,1.10
2022-10-08T08:29:07.855Z,1.40
2022-10-08T08:31:41.649Z,1.10
2022-10-08T08:34:11.419Z,1.37
2022-10-08T08:36:40.441Z,1.03
2022-10-08T08:39:09.797Z,0.93
2022-10-08T08:42:16.025Z,1.00
2022-10-08T08:44:46.947Z,4.87
2022-10-08T08:47:24.119Z,3.30
2022-10-08T08:50:00.282Z,6.00
2022-10-08T08:52:35.304Z,2.50
2022-10-08T08:55:02.925Z,1.20
2022-10-08T08:58:11.037Z,0.90
2022-10-08T09:00:42.158Z,0.93
2022-10-08T09:03:18.763Z,2.20
2022-10-08T09:05:47.409Z,5.90
2022-10-08T09:08:36.823Z,2.93
2022-10-08T09:11:07.224Z,1.47
2022-10-08T09:13:52.470Z,0.83
2022-10-08T09:16:19.724Z,5.97
2022-10-08T09:18:50.291Z,5.70
2022-10-08T09:21:18.521Z,7.23
2022-10-08T09:23:45.702Z,7.33
2022-10-08T09:26:20.056Z,5.20
2022-10-08T09:28:55.696Z,5.93
2022-10-08T09:31:46.920Z,6.00
2022-10-08T09:34:15.825Z,4.40
2022-10-08T09:37:03.380Z,4.33
2022-10-08T09:39:32.657Z,0.90
2022-10-08T09:42:21.273Z,1.40
2022-10-08T09:44:50.901Z,7.20
2022-10-08T09:47:23.218Z,7.03
2022-10-08T09:50:04.218Z,6.40
2022-10-08T09:52:31.381Z,1.17
2022-10-08T09:55:03.515Z,2.30
2022-10-08T09:57:31.639Z,1.10
2022-10-08T10:00:00.967Z,2.10
2022-10-08T10:02:31.066Z,2.13
2022-10-08T10:04:59.688Z,2.20
2022-10-08T10:07:54.690Z,2.93
2022-10-08T10:10:40.820Z,6.20
2022-10-08T10:13:38.982Z,2.50
2022-10-08T10:16:15.075Z,0.80
2022-10-08T10:19:00.555Z,3.40
2022-10-08T10:21:50.515Z,2.00
2022-10-08T10:24:48.448Z,8.57
2022-10-08T10:27:23.737Z,7.47
2022-10-08T10:30:16.155Z,8.53
2022-10-08T10:32:51.991Z,4.37
2022-10-08T10:35:23.913Z,8.00
2022-10-08T10:38:16.490Z,6.03
2022-10-08T10:41:06.941Z,3.90
2022-10-08T10:44:04.414Z,1.10
2022-10-08T10:46:34.623Z,0.87
2022-10-08T10:49:01.928Z,1.20
2022-10-08T10:51:44.830Z,1.40
2022-10-08T10:54:27.970Z,1.97
2022-10-08T10:57:01.226Z,5.83
2022-10-08T10:59:34.529Z,1.97
2022-10-08T11:02:15.804Z,1.30
2022-10-08T11:05:15.411Z,4.93
2022-10-08T11:08:13.087Z,5.00
2022-10-08T11:10:40.203Z,2.40
2022-10-08T11:13:34.293Z,0.80
2022-10-08T11:16:39.902Z,1.33
2022-10-08T11:19:43.854Z,0.80
2022-10-08T11:22:37.611Z,1.73
2022-10-08T11:25:07.923Z,1.10
2022-10-08T11:28:02.427Z,0.90
2022-10-08T11:31:05.636Z,0.80
2022-10-08T11:33:33.515Z,0.93
2022-10-08T11:36:15.208Z,1.10
2022-10-08T11:38:53.610Z,2.73
2022-10-08T11:41:23.499Z,5.80
2022-10-08T11:44:00.505Z,6.63
2022-10-08T11:46:30.316Z,2.50
2022-10-08T11:49:13.488Z,3.43
2022-10-08T11:51:47.898Z,2.33
2022-10-08T11:54:20.620Z,3.20
2022-10-08T11:56:50.425Z,7.33
2022-10-08T11:59:39.826Z,5.30
2022-10-08T12:02:38.674Z,1.00
2022-10-08T12:05:24.207Z,1.00
2022-10-08T12:07:58.115Z,5.70
2022-10-08T12:10:32.570Z,5.80
2022-10-08T12:13:02.884Z,1.43
2022-10-08T12:15:33.438Z,0.80
2022-10-08T12:18:26.022Z,1.30
2022-10-08T12:21:16.684Z,6.67
2022-10-08T12:23:45.026Z,4.33
2022-10-08T12:26:16.959Z,2.37
2022-10-08T12:28:48.017Z,3.43
2022-10-08T12:31:27.663Z,3.30
2022-10-08T12:33:55.986Z,5.23
2022-10-08T12:36:32.486Z,5.60
2022-10-08T12:39:07.295Z,1.30
2022-10-08T12:41:55.762Z,0.93
2022-10-08T12:44:28.648Z,5.73
2022-10-08T12:47:22.982Z,5.43
2022-10-08T12:49:59.507Z,6.13
2022-10-08T12:52:27.176Z,3.90
2022-10-08T12:54:55.117Z,5.73
2022-10-08T12:57:35.793Z,5.43
2022-10-08T13:00:17.144Z,1.47
2022-10-08T13:02:44.485Z,4.03
2022-10-08T13:05:30.700Z,1.60
2022-10-08T13:07:58.525Z,2.87
2022-10-08T13:10:28.777Z,5.73
2022-10-08T13:13:31.468Z,6.87
2022-10-08T13:15:59.980Z,2.53
2022-10-08T13:18:29.671Z,3.60
2022-10-08T13:20:58.536Z,4.83
2022-10-08T13:23:32.398Z,5.43
2022-10-08T13:26:00.952Z,1.27
2022-10-08T13:28:55.838Z,1.73
2022-10-08T13:31:25.039Z,5.83
2022-10-08T13:33:52.361Z,6.00
2022-10-08T13:36:22.195Z,7.10
2022-10-08T13:38:51.774Z,7.57
2022-10-08T13:41:24.225Z,7.03
2022-10-08T13:43:54.202Z,5.73
2022-10-08T13:46:21.401Z,5.50
2022-10-08T13:48:48.510Z,5.50
2022-10-08T13:51:17.644Z,3.57
2022-10-08T13:53:45.917Z,3.13
2022-10-08T13:56:13.733Z,4.60
2022-10-08T13:58:40.836Z,1.97
2022-10-08T14:01:08.142Z,0.90
2022-10-08T14:03:35.858Z,3.50
2022-10-08T14:06:03.238Z,1.23
2022-10-08T14:08:31.506Z,1.00
2022-10-08T14:10:58.904Z,2.40
2022-10-08T14:13:26.425Z,4.97
2022-10-08T14:15:53.735Z,5.40
2022-10-08T14:18:20.988Z,5.77
2022-10-08T14:20:50.475Z,6.63
2022-10-08T14:23:17.547Z,5.53
2022-10-08T14:25:44.691Z,2.73
2022-10-08T14:28:11.879Z,1.50
2022-10-08T14:30:39.152Z,0.93
2022-10-08T14:33:11.569Z,0.80
2022-10-08T14:35:39.418Z,0.87
2022-10-08T14:38:06.975Z,0.97
2022-10-08T14:40:35.037Z,0.87
2022-10-08T14:43:02.350Z,1.20
2022-10-08T14:45:29.622Z,0.93
2022-10-08T14:47:58.248Z,2.63
2022-10-08T14:50:25.357Z,5.47
2022-10-08T14:52:52.803Z,6.67
2022-10-08T14:55:19.870Z,5.83
2022-10-08T14:57:47.142Z,5.50
2022-10-08T15:00:15.138Z,3.53
2022-10-08T15:02:42.183Z,2.03
2022-10-08T15:05:09.699Z,1.10
2022-10-08T15:07:37.013Z,0.70
2022-10-08T15:10:04.652Z,1.33
2022-10-08T15:12:31.754Z,0.73
2022-10-08T15:14:58.941Z,2.03
2022-10-08T15:17:26.065Z,4.53
2022-10-08T15:19:53.436Z,5.40
2022-10-08T15:22:20.716Z,5.43
2022-10-08T15:24:47.664Z,5.27
2022-10-08T15:27:20.463Z,3.00
2022-10-08T15:29:48.005Z,5.17
2022-10-08T15:32:16.094Z,2.83
2022-10-08T15:34:43.329Z,4.87
2022-10-08T15:37:10.390Z,1.50
2022-10-08T15:39:38.125Z,1.67
2022-10-08T15:42:05.392Z,1.23
2022-10-08T15:44:33.433Z,0.83
2022-10-08T15:47:06.384Z,1.10
2022-10-08T15:49:39.497Z,0.70
2022-10-08T15:52:09.163Z,0.67
2022-10-08T15:54:39.722Z,0.90
2022-10-08T15:57:08.268Z,0.60
2022-10-08T15:59:36.121Z,0.70
2022-10-08T16:02:03.531Z,1.13
2022-10-08T16:04:30.694Z,0.83
2022-10-08T16:07:00.757Z,2.83
2022-10-08T16:09:28.793Z,3.23
2022-10-08T16:11:56.085Z,6.00
2022-10-08T16:14:25.010Z,4.70
2022-10-08T16:16:53.333Z,5.50
2022-10-08T16:19:27.670Z,4.97
2022-10-08T16:21:57.249Z,4.63
2022-10-08T16:24:24.687Z,5.70
2022-10-08T16:26:51.738Z,5.13
2022-10-08T16:29:19.365Z,6.20
2022-10-08T16:31:47.145Z,5.63
2022-10-08T16:34:16.763Z,4.03
2022-10-08T16:36:44.286Z,3.93
2022-10-08T16:39:13.104Z,1.93
2022-10-08T16:41:40.358Z,1.87
2022-10-08T16:44:12.634Z,0.80
2022-10-08T16:46:43.223Z,1.83
2022-10-08T16:49:22.818Z,2.13
2022-10-08T16:51:55.386Z,5.27
2022-10-08T16:54:22.963Z,5.60
2022-10-08T16:56:50.596Z,5.70
2022-10-08T16:59:21.002Z,5.03
2022-10-08T17:01:54.117Z,4.93
2022-10-08T17:04:23.646Z,5.40
2022-10-08T17:06:50.911Z,5.33
2022-10-08T17:09:18.071Z,5.40
2022-10-08T17:11:45.354Z,3.10
2022-10-08T17:14:12.463Z,2.07
2022-10-08T17:16:40.397Z,1.57
2022-10-08T17:19:08.046Z,0.70
2022-10-08T17:21:35.329Z,0.80
2022-10-08T17:24:03.104Z,1.10
2022-10-08T17:26:31.440Z,0.93
2022-10-08T17:29:02.175Z,2.30
2022-10-08T17:31:29.775Z,1.30
2022-10-08T17:33:56.763Z,4.50
2022-10-08T17:36:35.535Z,5.33
2022-10-08T17:39:04.927Z,1.33
2022-10-08T17:41:39.482Z,0.70
2022-10-08T17:44:08.546Z,0.80
2022-10-08T17:46:43.194Z,0.80
2022-10-08T17:49:10.655Z,2.53
2022-10-08T17:51:38.333Z,0.87
2022-10-08T17:54:08.335Z,3.80
2022-10-08T17:56:37.041Z,2.90
2022-10-08T17:59:04.486Z,1.53
2022-10-08T18:01:33.477Z,0.90
2022-10-08T18:04:09.761Z,2.50
2022-10-08T18:06:41.118Z,2.70
2022-10-08T18:09:17.352Z,1.00
2022-10-08T18:11:46.490Z,4.10
2022-10-08T18:14:13.890Z,4.93
2022-10-08T18:16:45.594Z,2.07
2022-10-08T18:19:15.093Z,3.23
2022-10-08T18:21:42.288Z,1.70
2022-10-08T18:24:09.697Z,1.13
2022-10-08T18:26:38.046Z,1.10
2022-10-08T18:29:09.381Z,1.40
2022-10-08T18:31:38.554Z,2.90
2022-10-08T18:34:08.788Z,1.00
2022-10-08T18:36:38.211Z,0.80
2022-10-08T18:39:17.049Z,1.40
2022-10-08T18:41:47.049Z,4.50
2022-10-08T18:44:20.649Z,5.60
2022-10-08T18:46:48.103Z,7.83
2022-10-08T18:49:19.908Z,3.30
2022-10-08T18:51:50.235Z,5.73
2022-10-08T18:54:17.480Z,6.27
2022-10-08T18:56:44.684Z,4.00
2022-10-08T18:59:13.721Z,2.33
2022-10-08T19:01:42.639Z,2.27
2022-10-08T19:04:13.615Z,1.63
2022-10-08T19:06:42.618Z,2.27
2022-10-08T19:09:10.391Z,2.07
2022-10-08T19:12:01.851Z,0.90
2022-10-08T19:14:29.091Z,1.70
2022-10-08T19:16:56.237Z,6.33
2022-10-08T19:19:27.546Z,5.63
2022-10-08T19:21:55.211Z,6.53
2022-10-08T19:24:26.398Z,6.50
2022-10-08T19:26:54.354Z,6.30
2022-10-08T19:29:23.561Z,6.00
2022-10-08T19:31:51.325Z,5.50
2022-10-08T19:34:21.207Z,7.90
2022-10-08T19:36:48.818Z,8.47
2022-10-08T19:39:22.258Z,4.70
2022-10-08T19:41:49.963Z,12.47
2022-10-08T19:44:17.640Z,6.10
2022-10-08T19:46:45.782Z,5.03
2022-10-08T19:49:13.623Z,3.07
2022-10-08T19:51:42.193Z,2.73
2022-10-08T19:54:09.652Z,1.00
2022-10-08T19:56:37.759Z,1.03
2022-10-08T19:59:06.447Z,1.87
2022-10-08T20:01:35.956Z,1.20
2022-10-08T20:04:04.337Z,1.50
2022-10-08T20:06:32.880Z,1.20
2022-10-08T20:09:03.780Z,1.40
2022-10-08T20:11:31.654Z,1.10
2022-10-08T20:13:59.797Z,3.43
2022-10-08T20:16:39.140Z,5.23
2022-10-08T20:19:12.771Z,1.03
2022-10-08T20:21:40.159Z,1.20
2022-10-08T20:24:07.518Z,2.10
2022-10-08T20:26:37.330Z,1.20
2022-10-08T20:29:08.683Z,1.50
2022-10-08T20:31:47.674Z,0.83
2022-10-08T20:34:17.904Z,4.27
2022-10-08T20:36:46.390Z,4.07
2022-10-08T20:39:18.752Z,5.73
2022-10-08T20:41:45.923Z,4.20
2022-10-08T20:44:13.068Z,3.50
2022-10-08T20:46:40.298Z,2.40
2022-10-08T20:49:12.856Z,1.17
2022-10-08T20:51:41.851Z,1.27
2022-10-08T20:54:11.494Z,1.03
2022-10-08T20:56:40.435Z,2.40
2022-10-08T20:59:09.411Z,1.37
2022-10-08T21:01:38.992Z,1.07
2022-10-08T21:04:07.308Z,0.90
2022-10-08T21:06:46.153Z,1.80
2022-10-08T21:09:14.250Z,4.60
2022-10-08T21:11:41.827Z,2.53
2022-10-08T21:14:17.718Z,0.80
2022-10-08T21:16:45.207Z,4.37
2022-10-08T21:19:21.829Z,2.23
2022-10-08T21:21:49.186Z,8.73
2022-10-08T21:24:16.353Z,6.10
2022-10-08T21:26:43.776Z,8.27
2022-10-08T21:29:13.249Z,2.73
2022-10-08T21:31:41.203Z,2.30
2022-10-08T21:34:09.086Z,1.00
2022-10-08T21:36:38.924Z,1.50
2022-10-08T21:39:08.240Z,1.10
2022-10-08T21:41:37.490Z,3.00
2022-10-08T21:44:07.435Z,1.47
2022-10-08T21:46:37.897Z,0.70
2022-10-08T21:49:33.162Z,1.50
2022-10-08T21:52:00.285Z,1.70
2022-10-08T21:54:27.287Z,4.83
2022-10-08T21:56:54.684Z,6.77
2022-10-08T21:59:21.698Z,8.83
2022-10-08T22:01:50.551Z,8.33
2022-10-08T22:04:22.555Z,8.67
2022-10-08T22:06:51.829Z,8.90
2022-10-08T22:09:23.708Z,7.50
2022-10-08T22:11:51.869Z,6.70
2022-10-08T22:14:19.245Z,8.87
2022-10-08T22:16:46.568Z,9.23
2022-10-08T22:19:14.502Z,7.17
2022-10-08T22:21:41.696Z,3.90
2022-10-08T22:24:09.992Z,1.97
2022-10-08T22:26:40.268Z,0.93
2022-10-08T22:29:08.816Z,1.00
2022-10-08T22:31:36.895Z,1.10
2022-10-08T22:34:04.348Z,1.40
2022-10-08T22:36:33.302Z,1.27
2022-10-08T22:39:00.966Z,2.60
2022-10-08T22:41:29.796Z,3.80
2022-10-08T22:43:57.079Z,5.80
2022-10-08T22:47:03.692Z,7.10
2022-10-08T22:49:30.855Z,1.17
2022-10-08T22:51:58.285Z,3.77
2022-10-08T22:54:25.513Z,7.10
2022-10-08T22:56:52.692Z,10.90
2022-10-08T22:59:19.699Z,9.13
2022-10-08T23:01:46.655Z,8.73
2022-10-08T23:04:13.750Z,8.10
2022-10-08T23:06:40.746Z,3.13
2022-10-08T23:09:12.294Z,1.37
2022-10-08T23:11:39.657Z,1.60
2022-10-08T23:14:07.272Z,1.27
2022-10-08T23:16:35.236Z,1.10
2022-10-08T23:19:04.729Z,1.40
2022-10-08T23:21:32.555Z,1.10
2022-10-08T23:24:00.368Z,2.60
2022-10-08T23:26:28.346Z,5.00
2022-10-08T23:28:58.210Z,9.30
2022-10-08T23:31:31.344Z,7.93
2022-10-08T23:33:58.993Z,4.07
2022-10-08T23:36:34.064Z,7.60
2022-10-08T23:39:01.950Z,1.83
2022-10-08T23:41:29.208Z,3.80
2022-10-08T23:43:57.231Z,8.63
2022-10-08T23:46:27.186Z,8.80
2022-10-08T23:48:55.245Z,7.53
2022-10-08T23:51:23.070Z,8.83
2022-10-08T23:53:53.652Z,12.17
2022-10-08T23:56:21.927Z,9.37
2022-10-08T23:58:49.360Z,10.33
